^^
Saratoga-Weather Station Historical Data
Daily Summary for April 24, 2021 Units:  English    Metric   Both
Daily Weekly Monthly Yearly Custom
  High: Low: Average:
Temperature: 49.6 °F 45.9 °F 47.8 °F
Dew Point: 46.8 °F 43.9 °F 45.3 °F
Humidity: 93% 89% 91%
Wind Speed: 0.9mph 0mph 0.1mph
Wind Gust: 2mph - -
Wind- - SW
Pressure: 30.5 in 30.5 in -
Precipitation: 0 in    
Historical Graphs
 
 
Tabular Data for April 24, 2021
Time Temperature Dew Point Pressure Wind Wind Speed Wind Gust Humidity Rainfall Rate (Hourly) solar
00:01 49.6 °F 46.6 °F 30.5 in Calm     89% 0 in 0 W/m2
00:06 49.6 °F 46.6 °F 30.5 in Calm     89% 0 in 0 W/m2
00:11 49.5 °F 46.4 °F 30.5 in Calm     89% 0 in 0 W/m2
00:16 49.6 °F 46.8 °F 30.5 in SW 0.9 mph 1 mph 90% 0 in 0 W/m2
00:21 49.5 °F 46.4 °F 30.5 in Calm     89% 0 in 0 W/m2
00:26 49.5 °F 46.4 °F 30.5 in Calm     89% 0 in 0 W/m2
00:31 49.3 °F 46.2 °F 30.5 in Calm     89% 0 in 0 W/m2
00:36 49.3 °F 46.2 °F 30.5 in Calm     89% 0 in 0 W/m2
00:41 49.1 °F 46.2 °F 30.5 in Calm     90% 0 in 0 W/m2
00:46 48.9 °F 46 °F 30.5 in Calm     90% 0 in 0 W/m2
00:51 48.7 °F 45.9 °F 30.5 in Calm     90% 0 in 0 W/m2
00:56 48.7 °F 46.2 °F 30.5 in Calm     91% 0 in 0 W/m2
01:01 48.6 °F 46 °F 30.5 in Calm     91% 0 in 0 W/m2
01:06 48.6 °F 46 °F 30.5 in Calm     91% 0 in 0 W/m2
01:11 48.6 °F 46 °F 30.5 in Calm   1 mph 91% 0 in 0 W/m2
01:16 48.4 °F 45.9 °F 30.5 in Calm     91% 0 in 0 W/m2
01:21 48.2 °F 45.7 °F 30.5 in Calm     91% 0 in 0 W/m2
01:26 48 °F 45.5 °F 30.5 in Calm     91% 0 in 0 W/m2
01:31 48 °F 45.5 °F 30.5 in Calm     91% 0 in 0 W/m2
01:36 47.8 °F 45 °F 30.5 in Calm     90% 0 in 0 W/m2
01:41 47.7 °F 45.1 °F 30.5 in Calm     91% 0 in 0 W/m2
01:51 47.5 °F 45.3 °F 30.5 in Calm     92% 0 in 0 W/m2
01:56 47.5 °F 45.3 °F 30.5 in Calm     92% 0 in 0 W/m2
02:01 47.3 °F 45.1 °F 30.5 in Calm     92% 0 in 0 W/m2
02:06 47.1 °F 45 °F 30.5 in Calm     92% 0 in 0 W/m2
02:11 46.9 °F 44.8 °F 30.5 in Calm     92% 0 in 0 W/m2
02:16 46.8 °F 44.6 °F 30.5 in Calm     92% 0 in 0 W/m2
02:21 46.8 °F 44.6 °F 30.5 in Calm     92% 0 in 0 W/m2
02:26 46.4 °F 44.2 °F 30.5 in Calm     92% 0 in 0 W/m2
02:31 46.2 °F 44.2 °F 30.5 in Calm     93% 0 in 0 W/m2
02:36 46.2 °F 44.2 °F 30.5 in Calm     93% 0 in 0 W/m2
02:41 46.2 °F 44.2 °F 30.5 in Calm     93% 0 in 0 W/m2
02:46 46 °F 44.1 °F 30.5 in Calm     93% 0 in 0 W/m2
02:51 46 °F 44.1 °F 30.5 in SW 0.9 mph 2 mph 93% 0 in 0 W/m2
02:56 46 °F 44.1 °F 30.5 in Calm     93% 0 in 0 W/m2
03:01 46 °F 44.1 °F 30.5 in Calm   2 mph 93% 0 in 0 W/m2
03:06 45.9 °F 43.9 °F 30.5 in Calm     93% 0 in 0 W/m2
Juneau County Weather
Compliments of Weather Underground - 4 mb